sensor_id;sensor_type;location;lat;lon;timestamp;pressure;altitude;pressure_sealevel;temperature;humidity
84483;BME280;74703;51.284;22.590;2024-01-15T00:03:03;97541.53;;;-0.28;81.16
84483;BME280;74703;51.284;22.590;2024-01-15T00:08:03;97502.47;;;-0.31;80.40
84483;BME280;74703;51.284;22.590;2024-01-15T00:13:04;97521.63;;;-0.18;80.52
84483;BME280;74703;51.284;22.590;2024-01-15T00:18:05;97513.88;;;-0.16;80.31
84483;BME280;74703;51.284;22.590;2024-01-15T00:23:06;97509.66;;;-0.17;80.20
84483;BME280;74703;51.284;22.590;2024-01-15T00:28:07;97483.75;;;-0.32;80.18
84483;BME280;74703;51.284;22.590;2024-01-15T00:33:07;97482.94;;;-0.32;80.40
84483;BME280;74703;51.284;22.590;2024-01-15T00:38:08;97483.03;;;-0.35;81.19
84483;BME280;74703;51.284;22.590;2024-01-15T00:43:08;97462.63;;;-0.37;80.75
84483;BME280;74703;51.284;22.590;2024-01-15T00:48:09;97467.13;;;-0.43;81.02
84483;BME280;74703;51.284;22.590;2024-01-15T00:53:09;97445.41;;;-0.55;81.08
84483;BME280;74703;51.284;22.590;2024-01-15T00:58:10;97473.66;;;-0.35;81.52
84483;BME280;74703;51.284;22.590;2024-01-15T01:03:10;97467.41;;;-0.28;81.97
84483;BME280;74703;51.284;22.590;2024-01-15T01:08:11;97462.84;;;-0.43;82.67
84483;BME280;74703;51.284;22.590;2024-01-15T01:13:11;97452.38;;;-0.35;82.94
84483;BME280;74703;51.284;22.590;2024-01-15T01:18:12;97442.91;;;-0.57;83.15
84483;BME280;74703;51.284;22.590;2024-01-15T01:23:13;97443.53;;;-0.50;83.48
84483;BME280;74703;51.284;22.590;2024-01-15T01:28:13;97435.19;;;-0.55;83.88
84483;BME280;74703;51.284;22.590;2024-01-15T01:33:14;97414.75;;;-0.55;83.73
84483;BME280;74703;51.284;22.590;2024-01-15T01:38:14;97418.44;;;-0.62;83.98
84483;BME280;74703;51.284;22.590;2024-01-15T01:43:15;97414.94;;;-0.60;83.23
84483;BME280;74703;51.284;22.590;2024-01-15T01:48:15;97407.19;;;-0.58;82.85
84483;BME280;74703;51.284;22.590;2024-01-15T01:53:16;97377.00;;;-0.71;82.85
84483;BME280;74703;51.284;22.590;2024-01-15T01:58:17;97391.00;;;-0.57;82.36
84483;BME280;74703;51.284;22.590;2024-01-15T02:03:27;97380.13;;;-0.62;82.44
84483;BME280;74703;51.284;22.590;2024-01-15T02:08:27;97375.72;;;-0.59;81.52
84483;BME280;74703;51.284;22.590;2024-01-15T02:13:28;97370.72;;;-0.62;81.61
84483;BME280;74703;51.284;22.590;2024-01-15T02:18:40;97366.41;;;-0.60;81.50
84483;BME280;74703;51.284;22.590;2024-01-15T02:23:42;97372.50;;;-0.64;81.08
84483;BME280;74703;51.284;22.590;2024-01-15T02:28:43;97364.56;;;-0.56;80.91
84483;BME280;74703;51.284;22.590;2024-01-15T02:33:44;97336.84;;;-0.67;80.32
84483;BME280;74703;51.284;22.590;2024-01-15T02:38:46;97316.81;;;-0.78;79.89
84483;BME280;74703;51.284;22.590;2024-01-15T02:43:47;97339.19;;;-0.61;80.27
84483;BME280;74703;51.284;22.590;2024-01-15T02:48:47;97329.81;;;-0.60;80.14
84483;BME280;74703;51.284;22.590;2024-01-15T02:53:50;97324.88;;;-0.65;79.78
84483;BME280;74703;51.284;22.590;2024-01-15T02:58:50;97328.84;;;-0.58;79.62
84483;BME280;74703;51.284;22.590;2024-01-15T03:03:51;97318.75;;;-0.61;79.47
84483;BME280;74703;51.284;22.590;2024-01-15T03:08:51;97298.31;;;-0.61;79.50
84483;BME280;74703;51.284;22.590;2024-01-15T03:13:52;97319.16;;;-0.48;79.28
84483;BME280;74703;51.284;22.590;2024-01-15T03:18:53;97318.75;;;-0.61;80.22
84483;BME280;74703;51.284;22.590;2024-01-15T03:23:53;97290.75;;;-0.64;81.15
84483;BME280;74703;51.284;22.590;2024-01-15T03:28:54;97285.47;;;-0.81;81.59
84483;BME280;74703;51.284;22.590;2024-01-15T03:33:55;97282.06;;;-0.82;81.51
84483;BME280;74703;51.284;22.590;2024-01-15T03:38:55;97268.31;;;-0.78;81.34
84483;BME280;74703;51.284;22.590;2024-01-15T03:43:56;97291.78;;;-0.68;80.17
84483;BME280;74703;51.284;22.590;2024-01-15T03:48:56;97269.25;;;-0.80;79.84
84483;BME280;74703;51.284;22.590;2024-01-15T03:53:57;97268.50;;;-0.60;79.18
84483;BME280;74703;51.284;22.590;2024-01-15T03:58:57;97257.31;;;-0.58;78.79
84483;BME280;74703;51.284;22.590;2024-01-15T04:03:58;97239.69;;;-0.64;77.94
84483;BME280;74703;51.284;22.590;2024-01-15T04:08:58;97214.50;;;-0.73;77.62
84483;BME280;74703;51.284;22.590;2024-01-15T04:13:59;97222.81;;;-0.46;77.28
84483;BME280;74703;51.284;22.590;2024-01-15T04:18:59;97190.28;;;-0.63;76.55
84483;BME280;74703;51.284;22.590;2024-01-15T04:24:00;97224.66;;;-0.50;76.70
84483;BME280;74703;51.284;22.590;2024-01-15T04:29:01;97197.13;;;-0.63;76.57
84483;BME280;74703;51.284;22.590;2024-01-15T04:34:01;97202.75;;;-0.55;76.28
84483;BME280;74703;51.284;22.590;2024-01-15T04:39:02;97195.91;;;-0.55;75.77
84483;BME280;74703;51.284;22.590;2024-01-15T04:44:02;97200.03;;;-0.51;75.93
84483;BME280;74703;51.284;22.590;2024-01-15T04:49:03;97190.56;;;-0.49;75.75
84483;BME280;74703;51.284;22.590;2024-01-15T04:54:04;97182.03;;;-0.48;75.37
84483;BME280;74703;51.284;22.590;2024-01-15T04:59:04;97172.63;;;-0.47;74.97
84483;BME280;74703;51.284;22.590;2024-01-15T05:04:05;97173.44;;;-0.47;75.24
84483;BME280;74703;51.284;22.590;2024-01-15T05:09:05;97162.91;;;-0.59;76.49
84483;BME280;74703;51.284;22.590;2024-01-15T05:14:06;97194.59;;;-0.43;78.57
84483;BME280;74703;51.284;22.590;2024-01-15T05:19:07;97170.69;;;-0.84;81.81
84483;BME280;74703;51.284;22.590;2024-01-15T05:24:08;97163.63;;;-1.00;83.33
84483;BME280;74703;51.284;22.590;2024-01-15T05:29:09;97161.81;;;-0.98;83.66
84483;BME280;74703;51.284;22.590;2024-01-15T05:34:09;97148.69;;;-1.10;82.74
84483;BME280;74703;51.284;22.590;2024-01-15T05:39:10;97146.94;;;-0.86;81.85
84483;BME280;74703;51.284;22.590;2024-01-15T05:44:11;97154.88;;;-0.72;80.43
84483;BME280;74703;51.284;22.590;2024-01-15T05:49:11;97142.66;;;-0.86;80.00
84483;BME280;74703;51.284;22.590;2024-01-15T05:54:12;97140.56;;;-0.76;79.59
84483;BME280;74703;51.284;22.590;2024-01-15T05:59:12;97140.69;;;-0.57;79.10
84483;BME280;74703;51.284;22.590;2024-01-15T06:04:13;97135.94;;;-0.66;78.99
84483;BME280;74703;51.284;22.590;2024-01-15T06:09:13;97093.06;;;-0.80;78.47
84483;BME280;74703;51.284;22.590;2024-01-15T06:14:14;97105.94;;;-0.61;78.40
84483;BME280;74703;51.284;22.590;2024-01-15T06:19:15;97128.94;;;-0.41;78.63
84483;BME280;74703;51.284;22.590;2024-01-15T06:24:15;97123.84;;;-0.41;78.69
84483;BME280;74703;51.284;22.590;2024-01-15T06:29:18;97102.06;;;-0.50;78.44
84483;BME280;74703;51.284;22.590;2024-01-15T06:34:19;97122.34;;;-0.47;78.97
84483;BME280;74703;51.284;22.590;2024-01-15T06:39:20;97130.09;;;-0.48;79.26
84483;BME280;74703;51.284;22.590;2024-01-15T06:44:20;97133.59;;;-0.51;79.11
84483;BME280;74703;51.284;22.590;2024-01-15T06:49:21;97124.38;;;-0.55;79.51
84483;BME280;74703;51.284;22.590;2024-01-15T06:54:22;97116.34;;;-0.66;79.91
84483;BME280;74703;51.284;22.590;2024-01-15T06:59:23;97122.94;;;-0.60;80.57
84483;BME280;74703;51.284;22.590;2024-01-15T07:04:24;97128.41;;;-0.49;80.25
84483;BME280;74703;51.284;22.590;2024-01-15T07:09:24;97135.16;;;-0.26;79.19
84483;BME280;74703;51.284;22.590;2024-01-15T07:14:25;97143.34;;;-0.18;78.51
84483;BME280;74703;51.284;22.590;2024-01-15T07:19:26;97137.50;;;-0.21;78.43
84483;BME280;74703;51.284;22.590;2024-01-15T07:24:28;97119.19;;;-0.31;77.56
84483;BME280;74703;51.284;22.590;2024-01-15T07:29:28;97120.41;;;-0.19;77.23
84483;BME280;74703;51.284;22.590;2024-01-15T07:34:30;97140.84;;;-0.19;77.75
84483;BME280;74703;51.284;22.590;2024-01-15T07:39:32;97123.53;;;-0.13;76.80
84483;BME280;74703;51.284;22.590;2024-01-15T07:44:33;97119.88;;;-0.07;76.16
84483;BME280;74703;51.284;22.590;2024-01-15T07:49:34;97139.38;;;-0.05;76.24
84483;BME280;74703;51.284;22.590;2024-01-15T07:54:34;97143.06;;;0.09;76.61
84483;BME280;74703;51.284;22.590;2024-01-15T07:59:35;97145.81;;;0.25;76.40
84483;BME280;74703;51.284;22.590;2024-01-15T08:04:37;97129.16;;;-0.05;77.77
84483;BME280;74703;51.284;22.590;2024-01-15T08:09:38;97155.84;;;-0.32;82.19
84483;BME280;74703;51.284;22.590;2024-01-15T08:14:39;97126.94;;;-0.55;84.08
84483;BME280;74703;51.284;22.590;2024-01-15T08:19:40;97127.91;;;-0.57;84.49
84483;BME280;74703;51.284;22.590;2024-01-15T08:24:41;97137.75;;;-0.28;83.80
84483;BME280;74703;51.284;22.590;2024-01-15T08:29:41;97131.50;;;-0.41;84.51
84483;BME280;74703;51.284;22.590;2024-01-15T08:34:42;97149.78;;;-0.30;84.26
84483;BME280;74703;51.284;22.590;2024-01-15T08:39:43;97117.28;;;-0.06;83.35
84483;BME280;74703;51.284;22.590;2024-01-15T08:44:44;97132.81;;;0.29;80.73
84483;BME280;74703;51.284;22.590;2024-01-15T08:49:44;97120.28;;;0.23;79.97
84483;BME280;74703;51.284;22.590;2024-01-15T08:54:45;97101.88;;;0.15;79.44
84483;BME280;74703;51.284;22.590;2024-01-15T08:59:46;97116.25;;;0.57;77.94
84483;BME280;74703;51.284;22.590;2024-01-15T09:04:46;97103.69;;;0.52;77.22
84483;BME280;74703;51.284;22.590;2024-01-15T09:09:49;97101.84;;;0.54;76.79
84483;BME280;74703;51.284;22.590;2024-01-15T09:14:49;97124.41;;;0.65;76.97
84483;BME280;74703;51.284;22.590;2024-01-15T09:19:50;97119.50;;;0.79;76.29
84483;BME280;74703;51.284;22.590;2024-01-15T09:24:52;97115.41;;;0.94;75.95
84483;BME280;74703;51.284;22.590;2024-01-15T09:29:53;97108.78;;;0.71;76.42
84483;BME280;74703;51.284;22.590;2024-01-15T09:34:53;97102.81;;;0.89;76.30
84483;BME280;74703;51.284;22.590;2024-01-15T09:39:54;97110.16;;;0.97;75.54
84483;BME280;74703;51.284;22.590;2024-01-15T09:44:56;97104.13;;;0.98;74.76
84483;BME280;74703;51.284;22.590;2024-01-15T09:49:57;97065.47;;;0.85;74.48
84483;BME280;74703;51.284;22.590;2024-01-15T09:55:01;97094.75;;;1.16;74.22
84483;BME280;74703;51.284;22.590;2024-01-15T10:00:02;97088.22;;;1.28;74.00
84483;BME280;74703;51.284;22.590;2024-01-15T10:05:07;97069.16;;;1.33;73.51
84483;BME280;74703;51.284;22.590;2024-01-15T10:10:09;97083.03;;;1.47;73.00
84483;BME280;74703;51.284;22.590;2024-01-15T10:15:11;97079.09;;;1.22;73.61
84483;BME280;74703;51.284;22.590;2024-01-15T10:20:12;97080.75;;;1.23;73.20
84483;BME280;74703;51.284;22.590;2024-01-15T10:25:13;97095.59;;;1.34;72.18
84483;BME280;74703;51.284;22.590;2024-01-15T10:30:14;97098.03;;;1.37;71.46
84483;BME280;74703;51.284;22.590;2024-01-15T10:35:17;97102.03;;;1.43;71.39
84483;BME280;74703;51.284;22.590;2024-01-15T10:40:18;97066.75;;;1.30;70.89
84483;BME280;74703;51.284;22.590;2024-01-15T10:45:19;97084.66;;;1.13;71.44
84483;BME280;74703;51.284;22.590;2024-01-15T10:50:20;97084.50;;;1.16;71.05
84483;BME280;74703;51.284;22.590;2024-01-15T10:55:23;97104.03;;;1.53;69.13
84483;BME280;74703;51.284;22.590;2024-01-15T11:00:24;97097.63;;;1.27;68.92
84483;BME280;74703;51.284;22.590;2024-01-15T11:05:25;97107.41;;;1.19;69.47
84483;BME280;74703;51.284;22.590;2024-01-15T11:10:46;97113.25;;;1.04;70.10
84483;BME280;74703;51.284;22.590;2024-01-15T11:16:00;97104.00;;;0.82;70.53
84483;BME280;74703;51.284;22.590;2024-01-15T11:26:43;97098.34;;;0.76;70.73
84483;BME280;74703;51.284;22.590;2024-01-15T11:32:05;97115.00;;;0.84;70.38
84483;BME280;74703;51.284;22.590;2024-01-15T11:37:05;97090.66;;;0.76;70.63
84483;BME280;74703;51.284;22.590;2024-01-15T11:42:06;97086.38;;;0.76;70.20
84483;BME280;74703;51.284;22.590;2024-01-15T11:47:09;97049.22;;;0.67;68.82
84483;BME280;74703;51.284;22.590;2024-01-15T11:52:17;97094.84;;;1.32;67.77
84483;BME280;74703;51.284;22.590;2024-01-15T11:57:24;97098.53;;;1.44;66.88
84483;BME280;74703;51.284;22.590;2024-01-15T12:02:27;97090.53;;;1.32;66.68
84483;BME280;74703;51.284;22.590;2024-01-15T12:07:28;97078.72;;;1.47;65.99
84483;BME280;74703;51.284;22.590;2024-01-15T12:18:04;97058.53;;;1.41;66.26
84483;BME280;74703;51.284;22.590;2024-01-15T12:23:05;97075.03;;;1.35;66.89
84483;BME280;74703;51.284;22.590;2024-01-15T12:28:10;97063.34;;;1.30;66.42
84483;BME280;74703;51.284;22.590;2024-01-15T12:33:10;97058.38;;;1.44;65.29
84483;BME280;74703;51.284;22.590;2024-01-15T12:38:11;97051.00;;;1.38;65.06
84483;BME280;74703;51.284;22.590;2024-01-15T12:43:12;97056.94;;;1.21;65.15
84483;BME280;74703;51.284;22.590;2024-01-15T12:48:12;97070.91;;;0.97;66.26
84483;BME280;74703;51.284;22.590;2024-01-15T12:53:15;97055.38;;;0.82;66.79
84483;BME280;74703;51.284;22.590;2024-01-15T12:58:17;97066.16;;;0.89;67.16
84483;BME280;74703;51.284;22.590;2024-01-15T13:03:18;97055.63;;;0.95;66.71
84483;BME280;74703;51.284;22.590;2024-01-15T13:08:19;97094.47;;;1.22;65.98
84483;BME280;74703;51.284;22.590;2024-01-15T13:13:19;97076.44;;;1.06;66.04
84483;BME280;74703;51.284;22.590;2024-01-15T13:18:20;97066.22;;;0.87;66.85
84483;BME280;74703;51.284;22.590;2024-01-15T13:23:20;97050.41;;;0.79;66.27
84483;BME280;74703;51.284;22.590;2024-01-15T13:28:21;97068.13;;;1.01;66.88
84483;BME280;74703;51.284;22.590;2024-01-15T13:33:22;97042.88;;;0.94;66.04
84483;BME280;74703;51.284;22.590;2024-01-15T13:38:22;97081.47;;;1.08;66.07
84483;BME280;74703;51.284;22.590;2024-01-15T13:43:24;97065.28;;;0.71;66.21
84483;BME280;74703;51.284;22.590;2024-01-15T13:48:25;97078.41;;;0.63;67.37
84483;BME280;74703;51.284;22.590;2024-01-15T13:53:26;97067.72;;;0.55;67.40
84483;BME280;74703;51.284;22.590;2024-01-15T13:58:27;97062.19;;;0.45;68.05
84483;BME280;74703;51.284;22.590;2024-01-15T14:03:27;97058.88;;;0.43;68.44
84483;BME280;74703;51.284;22.590;2024-01-15T14:08:28;97085.53;;;0.57;68.47
84483;BME280;74703;51.284;22.590;2024-01-15T14:13:29;97041.91;;;0.22;67.84
84483;BME280;74703;51.284;22.590;2024-01-15T14:18:29;97076.28;;;0.35;68.69
84483;BME280;74703;51.284;22.590;2024-01-15T14:23:30;97085.13;;;0.28;68.92
84483;BME280;74703;51.284;22.590;2024-01-15T14:28:31;97061.25;;;0.09;69.03
84483;BME280;74703;51.284;22.590;2024-01-15T14:33:31;97074.88;;;0.09;69.47
84483;BME280;74703;51.284;22.590;2024-01-15T14:38:32;97082.09;;;-0.01;70.35
84483;BME280;74703;51.284;22.590;2024-01-15T14:43:32;97077.88;;;-0.02;70.15
84483;BME280;74703;51.284;22.590;2024-01-15T14:48:33;97080.72;;;-0.08;70.13
84483;BME280;74703;51.284;22.590;2024-01-15T14:53:35;97090.50;;;-0.17;70.91
84483;BME280;74703;51.284;22.590;2024-01-15T14:58:35;97113.81;;;-0.05;70.61
84483;BME280;74703;51.284;22.590;2024-01-15T15:03:36;97112.16;;;-0.06;70.52
84483;BME280;74703;51.284;22.590;2024-01-15T15:08:37;97083.78;;;-0.20;70.44
84483;BME280;74703;51.284;22.590;2024-01-15T15:13:37;97082.97;;;-0.20;70.02
84483;BME280;74703;51.284;22.590;2024-01-15T15:18:38;97098.88;;;-0.14;69.55
84483;BME280;74703;51.284;22.590;2024-01-15T15:23:39;97086.66;;;-0.28;69.88
84483;BME280;74703;51.284;22.590;2024-01-15T15:28:39;97081.34;;;-0.43;70.09
84483;BME280;74703;51.284;22.590;2024-01-15T15:33:40;97115.97;;;-0.16;69.84
84483;BME280;74703;51.284;22.590;2024-01-15T15:38:40;97116.38;;;-0.05;69.50
84483;BME280;74703;51.284;22.590;2024-01-15T15:43:41;97098.00;;;-0.33;69.80
84483;BME280;74703;51.284;22.590;2024-01-15T15:48:41;97119.63;;;-0.42;70.03
84483;BME280;74703;51.284;22.590;2024-01-15T15:53:42;97107.69;;;-0.41;69.74
84483;BME280;74703;51.284;22.590;2024-01-15T15:58:42;97107.50;;;-0.57;70.48
84483;BME280;74703;51.284;22.590;2024-01-15T16:03:43;97133.78;;;-0.55;70.52
84483;BME280;74703;51.284;22.590;2024-01-15T16:08:44;97128.63;;;-0.54;70.39
84483;BME280;74703;51.284;22.590;2024-01-15T16:13:44;97118.69;;;-0.61;70.00
84483;BME280;74703;51.284;22.590;2024-01-15T16:18:45;97091.34;;;-0.80;69.79
84483;BME280;74703;51.284;22.590;2024-01-15T16:23:45;97109.22;;;-0.80;70.13
84483;BME280;74703;51.284;22.590;2024-01-15T16:28:46;97127.50;;;-0.68;69.83
84483;BME280;74703;51.284;22.590;2024-01-15T16:33:46;97118.41;;;-0.54;69.42
84483;BME280;74703;51.284;22.590;2024-01-15T16:38:47;97133.47;;;-0.48;70.05
84483;BME280;74703;51.284;22.590;2024-01-15T16:43:47;97111.81;;;-0.59;70.03
84483;BME280;74703;51.284;22.590;2024-01-15T16:48:48;97130.63;;;-0.62;70.87
84483;BME280;74703;51.284;22.590;2024-01-15T16:53:49;97144.16;;;-0.38;70.41
84483;BME280;74703;51.284;22.590;2024-01-15T16:58:50;97130.81;;;-0.44;70.84
84483;BME280;74703;51.284;22.590;2024-01-15T17:03:50;97134.31;;;-0.47;70.37
84483;BME280;74703;51.284;22.590;2024-01-15T17:08:52;97123.69;;;-0.58;70.88
84483;BME280;74703;51.284;22.590;2024-01-15T17:13:53;97105.75;;;-0.79;70.61
84483;BME280;74703;51.284;22.590;2024-01-15T17:18:53;97146.09;;;-0.65;70.77
84483;BME280;74703;51.284;22.590;2024-01-15T17:23:54;97141.69;;;-0.83;71.59
84483;BME280;74703;51.284;22.590;2024-01-15T17:28:55;97139.63;;;-0.74;71.13
84483;BME280;74703;51.284;22.590;2024-01-15T17:33:55;97168.50;;;-0.72;70.44
84483;BME280;74703;51.284;22.590;2024-01-15T17:38:56;97126.63;;;-0.89;70.60
84483;BME280;74703;51.284;22.590;2024-01-15T17:43:59;97142.09;;;-0.94;70.26
84483;BME280;74703;51.284;22.590;2024-01-15T17:49:01;97171.41;;;-0.81;70.50
84483;BME280;74703;51.284;22.590;2024-01-15T17:54:04;97173.25;;;-0.84;70.74
84483;BME280;74703;51.284;22.590;2024-01-15T17:59:09;97165.47;;;-0.81;70.00
84483;BME280;74703;51.284;22.590;2024-01-15T18:04:09;97161.41;;;-0.87;70.58
84483;BME280;74703;51.284;22.590;2024-01-15T18:09:10;97188.13;;;-0.74;69.80
84483;BME280;74703;51.284;22.590;2024-01-15T18:14:10;97172.88;;;-0.75;70.52
84483;BME280;74703;51.284;22.590;2024-01-15T18:19:12;97181.41;;;-0.76;71.08
84483;BME280;74703;51.284;22.590;2024-01-15T18:24:13;97170.81;;;-0.65;70.44
84483;BME280;74703;51.284;22.590;2024-01-15T18:29:14;97159.75;;;-0.66;70.28
84483;BME280;74703;51.284;22.590;2024-01-15T18:34:14;97170.47;;;-0.58;69.99
84483;BME280;74703;51.284;22.590;2024-01-15T18:39:15;97166.16;;;-0.56;70.58
84483;BME280;74703;51.284;22.590;2024-01-15T18:44:16;97170.13;;;-0.71;72.05
84483;BME280;74703;51.284;22.590;2024-01-15T18:49:17;97178.28;;;-0.61;71.21
84483;BME280;74703;51.284;22.590;2024-01-15T18:54:19;97184.13;;;-0.57;70.03
84483;BME280;74703;51.284;22.590;2024-01-15T18:59:20;97156.34;;;-0.88;71.13
84483;BME280;74703;51.284;22.590;2024-01-15T19:04:20;97161.66;;;-0.93;71.75
84483;BME280;74703;51.284;22.590;2024-01-15T19:09:21;97163.97;;;-0.87;72.01
84483;BME280;74703;51.284;22.590;2024-01-15T19:14:21;97163.66;;;-0.79;71.34
84483;BME280;74703;51.284;22.590;2024-01-15T19:19:22;97171.75;;;-0.68;70.69
84483;BME280;74703;51.284;22.590;2024-01-15T19:24:22;97156.81;;;-0.79;70.70
84483;BME280;74703;51.284;22.590;2024-01-15T19:29:23;97139.28;;;-0.86;70.63
84483;BME280;74703;51.284;22.590;2024-01-15T19:34:24;97126.97;;;-0.77;69.85
84483;BME280;74703;51.284;22.590;2024-01-15T19:39:24;97139.81;;;-0.78;69.73
84483;BME280;74703;51.284;22.590;2024-01-15T19:44:25;97122.53;;;-0.94;69.78
84483;BME280;74703;51.284;22.590;2024-01-15T19:49:25;97172.03;;;-0.76;69.50
84483;BME280;74703;51.284;22.590;2024-01-15T19:54:26;97138.59;;;-0.92;70.24
84483;BME280;74703;51.284;22.590;2024-01-15T19:59:26;97154.47;;;-0.83;69.82
84483;BME280;74703;51.284;22.590;2024-01-15T20:04:27;97143.66;;;-1.12;70.53
84483;BME280;74703;51.284;22.590;2024-01-15T20:09:27;97148.34;;;-1.23;71.00
84483;BME280;74703;51.284;22.590;2024-01-15T20:14:28;97131.44;;;-1.27;70.66
84483;BME280;74703;51.284;22.590;2024-01-15T20:19:30;97129.66;;;-1.24;70.50
84483;BME280;74703;51.284;22.590;2024-01-15T20:24:31;97125.34;;;-1.45;70.95
84483;BME280;74703;51.284;22.590;2024-01-15T20:29:31;97149.31;;;-1.27;70.86
84483;BME280;74703;51.284;22.590;2024-01-15T20:34:32;97163.72;;;-1.03;71.43
84483;BME280;74703;51.284;22.590;2024-01-15T20:39:33;97140.56;;;-0.98;70.57
84483;BME280;74703;51.284;22.590;2024-01-15T20:44:34;97148.06;;;-0.94;70.50
84483;BME280;74703;51.284;22.590;2024-01-15T20:49:35;97117.28;;;-1.12;71.29
84483;BME280;74703;51.284;22.590;2024-01-15T20:54:35;97137.44;;;-1.05;71.17
84483;BME280;74703;51.284;22.590;2024-01-15T20:59:36;97154.59;;;-0.86;70.85
84483;BME280;74703;51.284;22.590;2024-01-15T21:04:36;97135.66;;;-1.03;71.10
84483;BME280;74703;51.284;22.590;2024-01-15T21:09:37;97152.19;;;-0.91;70.97
84483;BME280;74703;51.284;22.590;2024-01-15T21:14:39;97154.81;;;-0.93;71.03
84483;BME280;74703;51.284;22.590;2024-01-15T21:19:39;97169.56;;;-0.77;71.05
84483;BME280;74703;51.284;22.590;2024-01-15T21:24:41;97177.13;;;-0.76;72.01
84483;BME280;74703;51.284;22.590;2024-01-15T21:29:42;97183.34;;;-0.81;71.75
84483;BME280;74703;51.284;22.590;2024-01-15T21:34:42;97184.28;;;-0.84;71.33
84483;BME280;74703;51.284;22.590;2024-01-15T21:39:43;97167.03;;;-0.79;71.37
84483;BME280;74703;51.284;22.590;2024-01-15T21:44:44;97214.81;;;-0.59;71.50
84483;BME280;74703;51.284;22.590;2024-01-15T21:49:45;97223.25;;;-0.57;71.17
84483;BME280;74703;51.284;22.590;2024-01-15T21:54:46;97225.63;;;-0.52;71.28
84483;BME280;74703;51.284;22.590;2024-01-15T21:59:46;97220.63;;;-0.55;70.86
84483;BME280;74703;51.284;22.590;2024-01-15T22:04:47;97212.72;;;-0.71;70.86
84483;BME280;74703;51.284;22.590;2024-01-15T22:09:47;97245.09;;;-0.50;71.10
84483;BME280;74703;51.284;22.590;2024-01-15T22:14:48;97247.78;;;-0.53;71.58
84483;BME280;74703;51.284;22.590;2024-01-15T22:19:48;97255.75;;;-0.60;71.85
84483;BME280;74703;51.284;22.590;2024-01-15T22:24:49;97237.47;;;-0.73;72.44
84483;BME280;74703;51.284;22.590;2024-01-15T22:29:49;97242.66;;;-0.75;73.95
84483;BME280;74703;51.284;22.590;2024-01-15T22:34:51;97265.03;;;-0.81;75.10
84483;BME280;74703;51.284;22.590;2024-01-15T22:39:52;97254.59;;;-0.99;75.07
84483;BME280;74703;51.284;22.590;2024-01-15T22:44:52;97289.69;;;-0.80;74.25
84483;BME280;74703;51.284;22.590;2024-01-15T22:49:53;97278.47;;;-1.00;74.03
84483;BME280;74703;51.284;22.590;2024-01-15T22:54:53;97285.91;;;-0.94;73.57
84483;BME280;74703;51.284;22.590;2024-01-15T22:59:55;97259.47;;;-1.16;73.14
84483;BME280;74703;51.284;22.590;2024-01-15T23:04:55;97285.47;;;-1.05;71.89
84483;BME280;74703;51.284;22.590;2024-01-15T23:09:56;97288.81;;;-1.03;70.60
84483;BME280;74703;51.284;22.590;2024-01-15T23:14:56;97286.66;;;-1.15;69.03
84483;BME280;74703;51.284;22.590;2024-01-15T23:19:57;97298.81;;;-1.22;67.52
84483;BME280;74703;51.284;22.590;2024-01-15T23:24:58;97312.09;;;-1.37;66.70
84483;BME280;74703;51.284;22.590;2024-01-15T23:29:58;97291.78;;;-1.65;65.99
84483;BME280;74703;51.284;22.590;2024-01-15T23:34:59;97319.09;;;-1.69;65.71
84483;BME280;74703;51.284;22.590;2024-01-15T23:40:01;97324.03;;;-1.91;64.88
84483;BME280;74703;51.284;22.590;2024-01-15T23:45:02;97333.66;;;-1.99;66.08
84483;BME280;74703;51.284;22.590;2024-01-15T23:50:03;97325.22;;;-2.01;66.13
84483;BME280;74703;51.284;22.590;2024-01-15T23:55:04;97335.09;;;-1.90;65.23
